Time,TemperatureF,DewpointF,PressureIn,WindDirection,WindDirectionDegrees,WindSpeedMPH,WindSpeedGustMPH,Humidity,HourlyPrecipIn,Conditions,Clouds,dailyrainin,SolarRadiationWatts/m^2,SoftwareType,DateUTC
2013-07-11 00:00:00,62.2,57.3,30.02,NNE,18,0.0,0.0,84,0.00,,,0.00,0,Wunderground v.1.15,2013-07-11 05:00:00,
2013-07-11 00:05:00,62.0,57.4,30.02,SW,234,0.0,2.0,85,0.00,,,0.00,0,Wunderground v.1.15,2013-07-11 05:05:00,
2013-07-11 00:15:00,61.4,56.8,30.02,SSW,202,1.0,1.0,85,0.00,,,0.00,0,Wunderground v.1.15,2013-07-11 05:15:00,
2013-07-11 00:20:00,61.2,57.0,30.02,SSW,202,0.0,0.0,86,0.00,,,0.00,0,Wunderground v.1.15,2013-07-11 05:20:00,
2013-07-11 00:25:00,61.1,57.2,30.02,SSW,202,0.0,0.0,87,0.00,,,0.00,0,Wunderground v.1.15,2013-07-11 05:25:00,
2013-07-11 00:30:00,61.0,57.1,30.02,SSW,202,0.0,0.0,87,0.00,,,0.00,0,Wunderground v.1.15,2013-07-11 05:30:00,
2013-07-11 00:40:00,60.8,57.2,30.02,SSW,202,0.0,0.0,88,0.00,,,0.00,0,Wunderground v.1.15,2013-07-11 05:40:00,
2013-07-11 00:45:00,60.8,57.5,30.02,SSW,202,0.0,0.0,89,0.00,,,0.00,0,Wunderground v.1.15,2013-07-11 05:45:00,
2013-07-11 00:50:00,60.7,57.1,30.02,SSW,202,0.0,0.0,88,0.00,,,0.00,0,Wunderground v.1.15,2013-07-11 05:50:00,
2013-07-11 00:55:00,60.3,56.7,30.02,SSW,202,0.0,0.0,88,0.00,,,0.00,0,Wunderground v.1.15,2013-07-11 05:55:00,
2013-07-11 01:05:00,60.1,56.8,30.03,SSW,200,0.0,0.0,89,0.00,,,0.00,0,Wunderground v.1.15,2013-07-11 06:05:00,
2013-07-11 01:15:00,60.0,56.7,30.03,SSW,200,0.0,0.0,89,0.00,,,0.00,0,Wunderground v.1.15,2013-07-11 06:15:00,
2013-07-11 01:20:00,60.0,56.7,30.03,SSW,200,0.0,0.0,89,0.00,,,0.00,0,Wunderground v.1.15,2013-07-11 06:20:00,
2013-07-11 01:25:00,60.0,56.7,30.02,SSW,200,0.0,0.0,89,0.00,,,0.00,0,Wunderground v.1.15,2013-07-11 06:25:00,
2013-07-11 01:30:00,60.0,56.7,30.02,SSW,200,0.0,0.0,89,0.00,,,0.00,0,Wunderground v.1.15,2013-07-11 06:30:00,
2013-07-11 01:40:00,60.1,56.8,30.02,SSE,162,0.0,0.0,89,0.00,,,0.00,0,Wunderground v.1.15,2013-07-11 06:40:00,
2013-07-11 01:45:00,60.2,56.6,30.02,SSE,162,0.0,0.0,88,0.00,,,0.00,0,Wunderground v.1.15,2013-07-11 06:45:00,
2013-07-11 01:50:00,60.2,56.6,30.03,SSE,162,0.0,0.0,88,0.00,,,0.00,0,Wunderground v.1.15,2013-07-11 06:50:00,
2013-07-11 01:55:00,60.1,56.5,30.02,SSE,162,0.0,0.0,88,0.00,,,0.00,0,Wunderground v.1.15,2013-07-11 06:55:00,
2013-07-11 02:05:00,59.8,56.2,30.03,SSE,162,0.0,0.0,88,0.00,,,0.00,0,Wunderground v.1.15,2013-07-11 07:05:00,
2013-07-11 02:15:00,59.6,56.4,30.03,SSE,162,0.0,0.0,89,0.00,,,0.00,0,Wunderground v.1.15,2013-07-11 07:15:00,
2013-07-11 02:25:00,59.3,56.4,30.03,SSW,197,0.0,2.0,90,0.00,,,0.00,0,Wunderground v.1.15,2013-07-11 07:25:00,
2013-07-11 02:30:00,59.1,55.9,30.03,SSW,198,0.0,0.0,89,0.00,,,0.00,0,Wunderground v.1.15,2013-07-11 07:30:00,
2013-07-11 02:35:00,59.0,55.8,30.03,SSW,198,0.0,0.0,89,0.00,,,0.00,0,Wunderground v.1.15,2013-07-11 07:35:00,
2013-07-11 02:40:00,58.9,55.7,30.03,SSW,198,0.0,0.0,89,0.00,,,0.00,0,Wunderground v.1.15,2013-07-11 07:40:00,
2013-07-11 02:50:00,58.6,55.4,30.03,SSW,198,0.0,0.0,89,0.00,,,0.00,0,Wunderground v.1.15,2013-07-11 07:50:00,
2013-07-11 02:55:00,58.5,55.6,30.03,SSW,198,0.0,0.0,90,0.00,,,0.00,0,Wunderground v.1.15,2013-07-11 07:55:00,
2013-07-11 03:00:00,58.4,55.5,30.03,SSW,192,0.0,1.0,90,0.00,,,0.00,0,Wunderground v.1.15,2013-07-11 08:00:00,
2013-07-11 03:05:00,58.3,55.4,30.03,SSW,192,0.0,1.0,90,0.00,,,0.00,0,Wunderground v.1.15,2013-07-11 08:05:00,
2013-07-11 03:15:00,58.1,55.5,30.03,SSW,192,0.0,1.0,91,0.00,,,0.00,0,Wunderground v.1.15,2013-07-11 08:15:00,
2013-07-11 03:25:00,57.8,55.2,30.03,SSW,192,0.0,1.0,91,0.00,,,0.00,0,Wunderground v.1.15,2013-07-11 08:25:00,
2013-07-11 03:30:00,57.8,55.2,30.03,SSW,192,0.0,1.0,91,0.00,,,0.00,0,Wunderground v.1.15,2013-07-11 08:30:00,
2013-07-11 03:40:00,57.9,55.6,30.03,SSW,192,0.0,0.0,92,0.00,,,0.00,0,Wunderground v.1.15,2013-07-11 08:40:00,
2013-07-11 07:10:00,62.1,58.5,30.05,SSE,148,1.0,2.0,88,0.00,,,0.00,162,Wunderground v.1.15,2013-07-11 12:10:00,
2013-07-11 07:15:00,62.6,59.0,30.05,SSE,148,1.0,3.0,88,0.00,,,0.00,174,Wunderground v.1.15,2013-07-11 12:15:00,
2013-07-11 07:25:00,63.5,59.6,30.05,SSE,148,2.0,2.0,87,0.00,,,0.00,199,Wunderground v.1.15,2013-07-11 12:25:00,
2013-07-11 07:30:00,64.1,59.8,30.05,South,170,2.0,2.0,86,0.00,,,0.00,216,Wunderground v.1.15,2013-07-11 12:30:00,
2013-07-11 07:35:00,64.7,59.8,30.05,SSE,155,3.0,3.0,84,0.00,,,0.00,230,Wunderground v.1.15,2013-07-11 12:35:00,
2013-07-11 07:45:00,65.4,60.4,30.06,SSE,166,2.0,3.0,84,0.00,,,0.00,257,Wunderground v.1.15,2013-07-11 12:45:00,
2013-07-11 07:50:00,65.9,60.2,30.06,South,169,2.0,3.0,82,0.00,,,0.00,269,Wunderground v.1.15,2013-07-11 12:50:00,
2013-07-11 08:00:00,67.1,61.1,30.06,SSE,157,3.0,3.0,81,0.00,,,0.00,294,Wunderground v.1.15,2013-07-11 13:00:00,
2013-07-11 08:05:00,67.8,61.0,30.05,SSE,166,3.0,3.0,79,0.00,,,0.00,318,Wunderground v.1.15,2013-07-11 13:05:00,
2013-07-11 08:15:00,69.1,61.9,30.05,SE,146,3.0,3.0,78,0.00,,,0.00,346,Wunderground v.1.15,2013-07-11 13:15:00,
2013-07-11 08:20:00,69.8,61.9,30.04,SSE,151,3.0,3.0,76,0.00,,,0.00,360,Wunderground v.1.15,2013-07-11 13:20:00,
2013-07-11 08:25:00,70.3,61.2,30.05,SSE,148,3.0,3.0,73,0.00,,,0.00,376,Wunderground v.1.15,2013-07-11 13:25:00,
2013-07-11 08:35:00,71.4,61.9,30.04,SSE,152,3.0,4.0,72,0.00,,,0.00,404,Wunderground v.1.15,2013-07-11 13:35:00,
2013-07-11 08:40:00,71.7,61.8,30.04,SSE,151,3.0,6.0,71,0.00,,,0.00,418,Wunderground v.1.15,2013-07-11 13:40:00,
2013-07-11 08:45:00,72.1,61.8,30.04,South,169,4.0,6.0,70,0.00,,,0.00,431,Wunderground v.1.15,2013-07-11 13:45:00,
2013-07-11 08:55:00,72.1,60.5,30.05,SSE,148,5.0,5.0,67,0.00,,,0.00,459,Wunderground v.1.15,2013-07-11 13:55:00,
2013-07-11 09:05:00,72.8,62.8,30.04,SSE,157,4.0,5.0,71,0.00,,,0.00,499,Wunderground v.1.15,2013-07-11 14:05:00,
2013-07-11 09:16:00,73.5,62.3,30.04,SSE,153,5.0,5.0,68,0.00,,,0.00,519,Wunderground v.1.15,2013-07-11 14:16:00,
2013-07-11 09:25:00,74.1,61.1,30.04,South,191,5.0,10.0,64,0.00,,,0.00,543,Wunderground v.1.15,2013-07-11 14:25:00,
2013-07-11 09:30:00,74.0,60.2,30.04,SSE,150,6.0,9.0,62,0.00,,,0.00,557,Wunderground v.1.15,2013-07-11 14:30:00,
2013-07-11 09:40:00,74.4,60.5,30.03,SSE,167,7.0,8.0,62,0.00,,,0.00,584,Wunderground v.1.15,2013-07-11 14:40:00,
2013-07-11 09:45:00,74.6,60.3,30.03,SSE,152,7.0,8.0,61,0.00,,,0.00,591,Wunderground v.1.15,2013-07-11 14:45:00,
2013-07-11 09:50:00,74.6,59.8,30.03,SSE,163,7.0,8.0,60,0.00,,,0.00,605,Wunderground v.1.15,2013-07-11 14:50:00,
2013-07-11 10:00:00,74.7,61.3,30.03,SE,146,7.0,11.0,63,0.00,,,0.00,628,Wunderground v.1.15,2013-07-11 15:00:00,
2013-07-11 10:05:00,74.8,60.9,30.02,SSE,162,7.0,11.0,62,0.00,,,0.00,643,Wunderground v.1.15,2013-07-11 15:05:00,
2013-07-11 10:15:00,75.4,60.1,30.02,South,169,7.0,13.0,59,0.00,,,0.00,659,Wunderground v.1.15,2013-07-11 15:15:00,
2013-07-11 10:25:00,75.8,60.9,30.01,SW,225,6.0,8.0,60,0.00,,,0.00,686,Wunderground v.1.15,2013-07-11 15:25:00,
2013-07-11 10:35:00,76.4,61.0,30.02,SSW,212,6.0,7.0,59,0.00,,,0.00,703,Wunderground v.1.15,2013-07-11 15:35:00,
2013-07-11 10:40:00,76.4,59.5,30.02,SSE,164,7.0,9.0,56,0.00,,,0.00,712,Wunderground v.1.15,2013-07-11 15:40:00,
2013-07-11 10:45:00,76.4,60.0,30.02,SSW,198,7.0,9.0,57,0.00,,,0.00,735,Wunderground v.1.15,2013-07-11 15:45:00,
2013-07-11 10:55:00,76.9,60.5,30.02,South,174,7.0,8.0,57,0.00,,,0.00,740,Wunderground v.1.15,2013-07-11 15:55:00,
2013-07-11 11:05:00,77.2,60.3,30.02,SSE,166,5.0,6.0,56,0.00,,,0.00,761,Wunderground v.1.15,2013-07-11 16:05:00,
2013-07-11 11:15:00,77.6,62.1,30.01,SSW,194,6.0,9.0,59,0.00,,,0.00,775,Wunderground v.1.15,2013-07-11 16:15:00,
2013-07-11 11:20:00,77.9,60.9,30.01,South,190,6.0,8.0,56,0.00,,,0.00,784,Wunderground v.1.15,2013-07-11 16:20:00,
2013-07-11 11:30:00,78.1,61.1,30.01,South,171,6.0,6.0,56,0.00,,,0.00,795,Wunderground v.1.15,2013-07-11 16:30:00,
2013-07-11 11:35:00,78.5,62.0,30.01,South,174,6.0,9.0,57,0.00,,,0.00,805,Wunderground v.1.15,2013-07-11 16:35:00,
2013-07-11 11:40:00,78.4,60.9,30.01,South,175,6.0,6.0,55,0.00,,,0.00,812,Wunderground v.1.15,2013-07-11 16:40:00,
2013-07-11 11:50:00,78.5,62.0,30.01,SE,138,7.0,7.0,57,0.00,,,0.00,823,Wunderground v.1.15,2013-07-11 16:50:00,
2013-07-11 11:55:00,78.8,60.7,30.01,SSE,162,6.0,7.0,54,0.00,,,0.00,831,Wunderground v.1.15,2013-07-11 16:55:00,
2013-07-11 12:05:00,79.0,60.9,30.01,South,171,7.0,7.0,54,0.00,,,0.00,842,Wunderground v.1.15,2013-07-11 17:05:00,
2013-07-11 12:15:00,79.6,61.5,30.00,South,180,7.0,8.0,54,0.00,,,0.00,851,Wunderground v.1.15,2013-07-11 17:15:00,
2013-07-11 12:20:00,79.5,60.9,30.00,South,169,8.0,8.0,53,0.00,,,0.00,851,Wunderground v.1.15,2013-07-11 17:20:00,
2013-07-11 12:25:00,79.6,61.5,30.00,South,187,7.0,8.0,54,0.00,,,0.00,854,Wunderground v.1.15,2013-07-11 17:25:00,
2013-07-11 12:30:00,79.7,61.1,30.00,SE,128,7.0,7.0,53,0.00,,,0.00,858,Wunderground v.1.15,2013-07-11 17:30:00,
2013-07-11 12:40:00,79.9,60.7,29.99,South,175,7.0,7.0,52,0.00,,,0.00,867,Wunderground v.1.15,2013-07-11 17:40:00,
2013-07-11 12:45:00,80.0,60.8,29.99,SSW,194,8.0,8.0,52,0.00,,,0.00,874,Wunderground v.1.15,2013-07-11 17:45:00,
2013-07-11 12:50:00,80.1,60.3,29.99,South,173,8.0,8.0,51,0.00,,,0.00,867,Wunderground v.1.15,2013-07-11 17:50:00,
2013-07-11 12:55:00,80.1,59.8,29.98,South,181,8.0,8.0,50,0.00,,,0.00,868,Wunderground v.1.15,2013-07-11 17:55:00,
2013-07-11 13:05:00,80.8,60.4,29.98,SSE,167,7.0,9.0,50,0.00,,,0.00,875,Wunderground v.1.15,2013-07-11 18:05:00,
2013-07-11 13:15:00,80.8,61.0,29.98,South,170,8.0,9.0,51,0.00,,,0.00,879,Wunderground v.1.15,2013-07-11 18:15:00,
2013-07-11 13:20:00,81.0,60.6,29.98,SSW,211,8.0,9.0,50,0.00,,,0.00,879,Wunderground v.1.15,2013-07-11 18:20:00,
2013-07-11 13:30:00,81.2,60.8,29.97,SSE,153,8.0,10.0,50,0.00,,,0.00,874,Wunderground v.1.15,2013-07-11 18:30:00,
2013-07-11 13:35:00,81.4,59.8,29.97,SSE,166,8.0,11.0,48,0.00,,,0.00,874,Wunderground v.1.15,2013-07-11 18:35:00,
2013-07-11 13:40:00,81.3,59.7,29.97,SSE,164,8.0,8.0,48,0.00,,,0.00,872,Wunderground v.1.15,2013-07-11 18:40:00,
2013-07-11 13:45:00,81.4,60.4,29.97,South,183,8.0,8.0,49,0.00,,,0.00,870,Wunderground v.1.15,2013-07-11 18:45:00,
2013-07-11 13:55:00,81.8,60.8,29.97,South,171,7.0,10.0,49,0.00,,,0.00,867,Wunderground v.1.15,2013-07-11 18:55:00,
2013-07-11 14:00:00,82.0,62.1,29.97,SSE,163,7.0,11.0,51,0.00,,,0.00,860,Wunderground v.1.15,2013-07-11 19:00:00,
2013-07-11 14:05:00,82.3,61.2,29.97,South,174,6.0,11.0,49,0.00,,,0.00,860,Wunderground v.1.15,2013-07-11 19:05:00,
2013-07-11 14:15:00,82.3,61.2,29.96,SSE,160,7.0,7.0,49,0.00,,,0.00,853,Wunderground v.1.15,2013-07-11 19:15:00,
2013-07-11 14:20:00,82.3,61.2,29.96,South,173,8.0,8.0,49,0.00,,,0.00,851,Wunderground v.1.15,2013-07-11 19:20:00,
2013-07-11 14:25:00,82.7,61.6,29.96,SSE,148,7.0,8.0,49,0.00,,,0.00,846,Wunderground v.1.15,2013-07-11 19:25:00,
2013-07-11 14:35:00,82.7,61.6,29.96,SSE,150,8.0,9.0,49,0.00,,,0.00,831,Wunderground v.1.15,2013-07-11 19:35:00,
2013-07-11 14:45:00,82.8,61.1,29.96,South,175,9.0,9.0,48,0.00,,,0.00,824,Wunderground v.1.15,2013-07-11 19:45:00,
2013-07-11 14:55:00,82.9,61.2,29.96,SSE,159,9.0,11.0,48,0.00,,,0.00,817,Wunderground v.1.15,2013-07-11 19:55:00,
2013-07-11 15:00:00,83.1,60.8,29.96,SSE,163,9.0,9.0,47,0.00,,,0.00,812,Wunderground v.1.15,2013-07-11 20:00:00,
2013-07-11 15:05:00,83.5,61.7,29.96,South,174,8.0,9.0,48,0.00,,,0.00,800,Wunderground v.1.15,2013-07-11 20:05:00,
2013-07-11 15:15:00,83.8,63.2,29.95,South,175,7.0,7.0,50,0.00,,,0.00,784,Wunderground v.1.15,2013-07-11 20:15:00,
2013-07-11 15:25:00,83.9,60.9,29.95,South,185,8.0,11.0,46,0.00,,,0.00,770,Wunderground v.1.15,2013-07-11 20:25:00,
2013-07-11 15:30:00,83.8,60.8,29.95,SSE,166,8.0,11.0,46,0.00,,,0.00,759,Wunderground v.1.15,2013-07-11 20:30:00,
2013-07-11 15:35:00,83.8,61.4,29.95,SSE,160,9.0,13.0,47,0.00,,,0.00,752,Wunderground v.1.15,2013-07-11 20:35:00,
2013-07-11 15:45:00,83.9,61.5,29.94,SSW,207,9.0,14.0,47,0.00,,,0.00,733,Wunderground v.1.15,2013-07-11 20:45:00,
2013-07-11 15:50:00,83.9,61.5,29.94,SSE,155,9.0,12.0,47,0.00,,,0.00,726,Wunderground v.1.15,2013-07-11 20:50:00,
2013-07-11 15:55:00,83.8,61.4,29.94,South,174,9.0,12.0,47,0.00,,,0.00,726,Wunderground v.1.15,2013-07-11 20:55:00,
2013-07-11 16:00:00,84.2,61.8,29.94,SSE,162,8.0,8.0,47,0.00,,,0.00,710,Wunderground v.1.15,2013-07-11 21:00:00,
2013-07-11 16:05:00,84.5,62.1,29.94,SSE,155,6.0,8.0,47,0.00,,,0.00,689,Wunderground v.1.15,2013-07-11 21:05:00,
2013-07-11 16:15:00,85.4,61.6,29.94,SE,132,1.0,4.0,45,0.00,,,0.01,564,Wunderground v.1.15,2013-07-11 21:15:00,
2013-07-11 16:20:00,85.9,61.5,29.93,SE,124,0.0,0.0,44,0.00,,,0.01,561,Wunderground v.1.15,2013-07-11 21:20:00,
2013-07-11 16:30:00,86.0,61.5,29.93,North,9,5.0,17.0,44,0.00,,,0.02,795,Wunderground v.1.15,2013-07-11 21:30:00,
2013-07-11 16:35:00,85.6,61.2,29.93,North,355,7.0,17.0,44,0.32,,,0.04,717,Wunderground v.1.15,2013-07-11 21:35:00,
2013-07-11 16:40:00,86.6,62.7,29.93,North,355,3.0,3.0,45,0.10,,,0.04,98,Wunderground v.1.15,2013-07-11 21:40:00,
2013-07-11 16:50:00,83.7,60.1,29.92,SSW,200,10.0,13.0,45,0.04,,,0.04,589,Wunderground v.1.15,2013-07-11 21:50:00,
2013-07-11 16:55:00,83.2,60.3,29.92,SSE,148,12.0,13.0,46,0.00,,,0.04,573,Wunderground v.1.15,2013-07-11 21:55:00,
2013-07-11 17:00:00,82.4,59.5,29.92,SE,143,14.0,16.0,46,0.00,,,0.04,559,Wunderground v.1.15,2013-07-11 22:00:00,
2013-07-11 17:05:00,82.6,62.1,29.92,SSW,194,14.0,16.0,50,0.00,,,0.04,548,Wunderground v.1.15,2013-07-11 22:05:00,
2013-07-11 17:10:00,83.2,60.9,29.92,South,174,11.0,11.0,47,0.00,,,0.04,536,Wunderground v.1.15,2013-07-11 22:10:00,
2013-07-11 17:20:00,82.7,59.8,29.91,SSW,211,12.0,12.0,46,0.00,,,0.04,504,Wunderground v.1.15,2013-07-11 22:20:00,
2013-07-11 17:25:00,83.0,60.1,29.92,South,189,12.0,12.0,46,0.00,,,0.04,490,Wunderground v.1.15,2013-07-11 22:25:00,
2013-07-11 17:35:00,82.5,60.2,29.91,South,178,13.0,18.0,47,0.00,,,0.04,464,Wunderground v.1.15,2013-07-11 22:35:00,
2013-07-11 17:40:00,82.3,59.4,29.91,SE,133,12.0,15.0,46,0.00,,,0.04,452,Wunderground v.1.15,2013-07-11 22:40:00,
2013-07-11 17:50:00,82.4,60.1,29.91,SSE,150,11.0,11.0,47,0.00,,,0.04,418,Wunderground v.1.15,2013-07-11 22:50:00,
2013-07-11 18:00:00,82.5,60.2,29.91,SSE,160,10.0,15.0,47,0.00,,,0.04,387,Wunderground v.1.15,2013-07-11 23:00:00,
2013-07-11 18:05:00,82.3,60.6,29.91,SSE,157,11.0,15.0,48,0.00,,,0.04,376,Wunderground v.1.15,2013-07-11 23:05:00,
2013-07-11 18:15:00,82.0,61.5,29.91,SE,134,12.0,14.0,50,0.00,,,0.04,353,Wunderground v.1.15,2013-07-11 23:15:00,
2013-07-11 18:20:00,82.0,59.8,29.91,SSE,149,12.0,15.0,47,0.00,,,0.04,338,Wunderground v.1.15,2013-07-11 23:20:00,
2013-07-11 18:30:00,81.7,59.5,29.91,SSE,165,15.0,15.0,47,0.00,,,0.04,309,Wunderground v.1.15,2013-07-11 23:30:00,
2013-07-11 18:35:00,81.6,59.4,29.90,SE,145,16.0,16.0,47,0.00,,,0.04,288,Wunderground v.1.15,2013-07-11 23:35:00,
2013-07-11 18:45:00,81.5,60.5,29.89,SSE,161,15.0,18.0,49,0.00,,,0.04,267,Wunderground v.1.15,2013-07-11 23:45:00,
2013-07-11 18:50:00,81.4,59.8,29.90,SE,140,15.0,15.0,48,0.00,,,0.04,257,Wunderground v.1.15,2013-07-11 23:50:00,
2013-07-11 19:00:00,81.3,59.7,29.89,SSE,167,13.0,13.0,48,0.00,,,0.04,232,Wunderground v.1.15,2013-07-12 00:00:00,
2013-07-11 19:05:00,81.1,60.1,29.89,SSE,148,14.0,14.0,49,0.00,,,0.04,211,Wunderground v.1.15,2013-07-12 00:05:00,
2013-07-11 19:15:00,80.9,59.9,29.89,SSE,149,15.0,19.0,49,0.00,,,0.04,186,Wunderground v.1.15,2013-07-12 00:15:00,
2013-07-11 19:20:00,80.7,60.3,29.89,SSE,157,15.0,16.0,50,0.00,,,0.04,167,Wunderground v.1.15,2013-07-12 00:20:00,
2013-07-11 19:25:00,80.6,59.7,29.89,SSE,152,14.0,16.0,49,0.00,,,0.04,148,Wunderground v.1.15,2013-07-12 00:25:00,
2013-07-11 19:35:00,80.3,60.0,29.89,SSE,163,12.0,15.0,50,0.00,,,0.04,120,Wunderground v.1.15,2013-07-12 00:35:00,
2013-07-11 19:40:00,80.2,59.9,29.89,SSE,165,11.0,11.0,50,0.00,,,0.04,109,Wunderground v.1.15,2013-07-12 00:40:00,
2013-07-11 19:45:00,80.0,60.2,29.89,SSE,153,10.0,11.0,51,0.00,,,0.04,97,Wunderground v.1.15,2013-07-12 00:45:00,
2013-07-11 20:00:00,79.2,60.6,29.89,SSE,158,10.0,11.0,53,0.00,,,0.04,62,Wunderground v.1.15,2013-07-12 01:00:00,
2013-07-11 20:05:00,79.0,60.4,29.89,SE,146,11.0,13.0,53,0.00,,,0.04,53,Wunderground v.1.15,2013-07-12 01:05:00,
2013-07-11 20:15:00,78.6,60.0,29.89,SSE,157,11.0,11.0,53,0.00,,,0.04,46,Wunderground v.1.15,2013-07-12 01:15:00,
2013-07-11 20:25:00,78.3,60.3,29.89,SSE,159,10.0,11.0,54,0.00,,,0.04,49,Wunderground v.1.15,2013-07-12 01:25:00,
2013-07-11 20:30:00,78.2,60.2,29.89,SSE,152,9.0,9.0,54,0.00,,,0.04,44,Wunderground v.1.15,2013-07-12 01:30:00,
2013-07-11 20:35:00,78.1,60.6,29.89,SSE,168,9.0,9.0,55,0.00,,,0.04,37,Wunderground v.1.15,2013-07-12 01:35:00,
2013-07-11 20:45:00,77.8,60.3,29.89,SE,144,9.0,9.0,55,0.00,,,0.04,26,Wunderground v.1.15,2013-07-12 01:45:00,
2013-07-11 20:50:00,77.6,60.7,29.89,SSE,153,9.0,9.0,56,0.00,,,0.04,18,Wunderground v.1.15,2013-07-12 01:50:00,
2013-07-11 20:55:00,77.3,60.9,29.89,SSE,154,10.0,15.0,57,0.00,,,0.04,7,Wunderground v.1.15,2013-07-12 01:55:00,
2013-07-11 21:00:00,76.9,60.5,29.89,SE,142,10.0,10.0,57,0.00,,,0.04,0,Wunderground v.1.15,2013-07-12 02:00:00,
2013-07-11 21:06:00,76.6,60.7,29.89,SSE,163,9.0,10.0,58,0.00,,,0.04,0,Wunderground v.1.15,2013-07-12 02:06:00,
2013-07-11 21:15:00,76.0,60.6,29.88,SE,144,12.0,13.0,59,0.00,,,0.04,0,Wunderground v.1.15,2013-07-12 02:15:00,
2013-07-11 21:25:00,75.3,60.0,29.88,SSE,151,12.0,13.0,59,0.00,,,0.04,0,Wunderground v.1.15,2013-07-12 02:25:00,
2013-07-11 21:30:00,75.2,60.4,29.89,SE,145,11.0,11.0,60,0.00,,,0.04,0,Wunderground v.1.15,2013-07-12 02:30:00,
2013-07-11 21:35:00,75.1,60.3,29.89,SSE,149,11.0,15.0,60,0.00,,,0.04,0,Wunderground v.1.15,2013-07-12 02:35:00,
2013-07-11 21:45:00,74.7,60.4,29.89,SE,146,11.0,12.0,61,0.00,,,0.04,0,Wunderground v.1.15,2013-07-12 02:45:00,
2013-07-11 21:50:00,74.5,60.2,29.89,SSE,154,10.0,10.0,61,0.00,,,0.04,0,Wunderground v.1.15,2013-07-12 02:50:00,
2013-07-11 21:55:00,74.3,60.0,29.89,SE,146,11.0,13.0,61,0.00,,,0.04,0,Wunderground v.1.15,2013-07-12 02:55:00,
2013-07-11 22:00:00,74.1,60.2,29.89,SSE,153,11.0,12.0,62,0.00,,,0.04,0,Wunderground v.1.15,2013-07-12 03:00:00,
2013-07-11 22:05:00,73.9,60.1,29.90,SSE,148,10.0,12.0,62,0.00,,,0.04,0,Wunderground v.1.15,2013-07-12 03:05:00,
2013-07-11 22:15:00,73.8,60.0,29.90,SSE,150,10.0,12.0,62,0.00,,,0.04,0,Wunderground v.1.15,2013-07-12 03:15:00,
2013-07-11 22:20:00,73.7,59.4,29.90,South,170,10.0,10.0,61,0.00,,,0.04,0,Wunderground v.1.15,2013-07-12 03:20:00,
2013-07-11 22:30:00,73.6,59.3,29.90,SE,144,8.0,12.0,61,0.00,,,0.04,0,Wunderground v.1.15,2013-07-12 03:30:00,
2013-07-11 22:35:00,73.5,59.2,29.90,South,171,8.0,12.0,61,0.00,,,0.04,0,Wunderground v.1.15,2013-07-12 03:35:00,
2013-07-11 22:45:00,73.3,59.0,29.90,SSW,208,8.0,11.0,61,0.00,,,0.04,0,Wunderground v.1.15,2013-07-12 03:45:00,
2013-07-11 22:50:00,73.2,58.9,29.90,SSW,197,8.0,8.0,61,0.00,,,0.04,0,Wunderground v.1.15,2013-07-12 03:50:00,
2013-07-11 22:55:00,73.1,58.8,29.90,SSE,168,8.0,11.0,61,0.00,,,0.04,0,Wunderground v.1.15,2013-07-12 03:55:00,
2013-07-11 23:05:00,73.1,58.4,29.90,South,174,8.0,9.0,60,0.00,,,0.04,0,Wunderground v.1.15,2013-07-12 04:05:00,
2013-07-11 23:10:00,73.0,58.3,29.90,SSE,155,9.0,9.0,60,0.00,,,0.04,0,Wunderground v.1.15,2013-07-12 04:10:00,
2013-07-11 23:15:00,73.0,58.3,29.90,SSE,150,11.0,16.0,60,0.00,,,0.04,0,Wunderground v.1.15,2013-07-12 04:15:00,
2013-07-11 23:20:00,72.7,58.5,29.90,SSE,167,13.0,14.0,61,0.00,,,0.04,0,Wunderground v.1.15,2013-07-12 04:20:00,
2013-07-11 23:25:00,72.6,58.4,29.89,SSE,167,13.0,16.0,61,0.00,,,0.04,0,Wunderground v.1.15,2013-07-12 04:25:00,
2013-07-11 23:35:00,72.7,58.0,29.89,SSE,153,13.0,15.0,60,0.00,,,0.04,0,Wunderground v.1.15,2013-07-12 04:35:00,
2013-07-11 23:40:00,72.5,57.8,29.90,SSE,156,13.0,14.0,60,0.00,,,0.04,0,Wunderground v.1.15,2013-07-12 04:40:00,
2013-07-11 23:45:00,72.3,58.1,29.90,SSE,155,12.0,14.0,61,0.00,,,0.04,0,Wunderground v.1.15,2013-07-12 04:45:00,
2013-07-11 23:55:00,71.9,58.2,29.90,SSE,150,10.0,13.0,62,0.00,,,0.04,0,Wunderground v.1.15,2013-07-12 04:55:00,